sensor_id;sensor_type;location;lat;lon;timestamp;pressure;altitude;pressure_sealevel;temperature;humidity
76331;BME280;65148;51.912;15.570;2023-01-28T00:08:34;102451.56;;;0.42;94.58
76331;BME280;65148;51.912;15.570;2023-01-28T00:23:36;102452.44;;;0.57;93.38
76331;BME280;65148;51.912;15.570;2023-01-28T00:38:38;102462.29;;;0.65;92.31
76331;BME280;65148;51.912;15.570;2023-01-28T00:53:40;102466.39;;;0.53;93.11
76331;BME280;65148;51.912;15.570;2023-01-28T01:09:02;102469.66;;;0.40;91.92
76331;BME280;65148;51.912;15.570;2023-01-28T01:24:03;102473.52;;;0.38;91.61
76331;BME280;65148;51.912;15.570;2023-01-28T01:39:04;102471.00;;;0.36;92.47
76331;BME280;65148;51.912;15.570;2023-01-28T01:54:05;102461.85;;;0.30;93.56
76331;BME280;65148;51.912;15.570;2023-01-28T02:09:28;102451.13;;;0.30;92.51
76331;BME280;65148;51.912;15.570;2023-01-28T02:39:48;102461.68;;;0.32;92.44
76331;BME280;65148;51.912;15.570;2023-01-28T03:10:21;102479.54;;;0.09;91.36
76331;BME280;65148;51.912;15.570;2023-01-28T03:25:26;102486.81;;;0.23;92.46
76331;BME280;65148;51.912;15.570;2023-01-28T03:40:56;102485.06;;;0.07;92.19
76331;BME280;65148;51.912;15.570;2023-01-28T03:55:57;102513.89;;;-0.03;90.13
76331;BME280;65148;51.912;15.570;2023-01-28T04:10:59;102520.83;;;-0.25;90.70
76331;BME280;65148;51.912;15.570;2023-01-28T04:26:35;102540.05;;;-0.29;90.19
76331;BME280;65148;51.912;15.570;2023-01-28T04:41:36;102541.05;;;-0.22;91.41
76331;BME280;65148;51.912;15.570;2023-01-28T04:56:37;102550.87;;;-0.07;88.58
76331;BME280;65148;51.912;15.570;2023-01-28T05:11:38;102552.88;;;-0.01;88.27
76331;BME280;65148;51.912;15.570;2023-01-28T05:27:02;102570.49;;;-0.22;85.21
76331;BME280;65148;51.912;15.570;2023-01-28T05:42:03;102577.66;;;-0.15;85.05
76331;BME280;65148;51.912;15.570;2023-01-28T05:57:04;102595.35;;;0.03;83.93
76331;BME280;65148;51.912;15.570;2023-01-28T06:12:05;102601.06;;;-0.01;83.01
76331;BME280;65148;51.912;15.570;2023-01-28T06:27:28;102617.65;;;-0.13;83.34
76331;BME280;65148;51.912;15.570;2023-01-28T06:42:29;102630.34;;;-0.07;84.30
76331;BME280;65148;51.912;15.570;2023-01-28T06:57:30;102628.14;;;0.05;84.48
76331;BME280;65148;51.912;15.570;2023-01-28T07:12:31;102648.74;;;-0.04;84.79
76331;BME280;65148;51.912;15.570;2023-01-28T07:27:55;102631.85;;;-0.05;85.27
76331;BME280;65148;51.912;15.570;2023-01-28T07:42:56;102644.88;;;0.07;83.21
76331;BME280;65148;51.912;15.570;2023-01-28T07:57:58;102639.52;;;0.07;82.85
76331;BME280;65148;51.912;15.570;2023-01-28T08:13:00;102643.82;;;0.24;84.34
76331;BME280;65148;51.912;15.570;2023-01-28T08:28:22;102652.02;;;0.22;80.85
76331;BME280;65148;51.912;15.570;2023-01-28T08:43:23;102650.18;;;0.31;81.24
76331;BME280;65148;51.912;15.570;2023-01-28T08:58:24;102661.03;;;0.38;80.44
76331;BME280;65148;51.912;15.570;2023-01-28T09:13:25;102668.19;;;0.45;80.76
76331;BME280;65148;51.912;15.570;2023-01-28T09:28:49;102675.52;;;0.59;79.75
76331;BME280;65148;51.912;15.570;2023-01-28T09:44:00;102675.26;;;0.85;77.44
76331;BME280;65148;51.912;15.570;2023-01-28T09:59:14;102668.68;;;0.96;79.16
76331;BME280;65148;51.912;15.570;2023-01-28T10:14:44;102678.06;;;0.92;75.96
76331;BME280;65148;51.912;15.570;2023-01-28T10:29:44;102684.61;;;0.89;76.37
76331;BME280;65148;51.912;15.570;2023-01-28T10:44:47;102694.36;;;0.82;78.11
76331;BME280;65148;51.912;15.570;2023-01-28T11:15:30;102688.91;;;0.98;75.01
76331;BME280;65148;51.912;15.570;2023-01-28T11:30:34;102692.20;;;0.78;75.47
76331;BME280;65148;51.912;15.570;2023-01-28T12:01:23;102661.63;;;0.95;75.20
76331;BME280;65148;51.912;15.570;2023-01-28T12:32:01;102626.72;;;1.03;77.59
76331;BME280;65148;51.912;15.570;2023-01-28T12:47:11;102627.91;;;1.23;74.23
76331;BME280;65148;51.912;15.570;2023-01-28T13:33:01;102654.32;;;1.12;72.62
76331;BME280;65148;51.912;15.570;2023-01-28T14:31:45;102662.52;;;1.18;73.40
76331;BME280;65148;51.912;15.570;2023-01-28T15:02:00;102642.17;;;1.24;74.92
76331;BME280;65148;51.912;15.570;2023-01-28T15:17:27;102624.78;;;0.89;75.96
76331;BME280;65148;51.912;15.570;2023-01-28T15:32:30;102621.31;;;0.80;77.16
76331;BME280;65148;51.912;15.570;2023-01-28T15:47:32;102628.50;;;1.10;76.26
76331;BME280;65148;51.912;15.570;2023-01-28T16:02:44;102611.15;;;0.98;76.59
76331;BME280;65148;51.912;15.570;2023-01-28T16:17:59;102627.75;;;0.71;78.90
76331;BME280;65148;51.912;15.570;2023-01-28T16:33:00;102633.94;;;0.71;78.80
76331;BME280;65148;51.912;15.570;2023-01-28T16:48:01;102636.57;;;0.80;79.37
76331;BME280;65148;51.912;15.570;2023-01-28T17:03:02;102664.09;;;0.73;79.87
76331;BME280;65148;51.912;15.570;2023-01-28T17:18:33;102674.52;;;0.60;80.32
76331;BME280;65148;51.912;15.570;2023-01-28T17:33:34;102685.11;;;0.54;81.29
76331;BME280;65148;51.912;15.570;2023-01-28T17:48:34;102687.87;;;0.68;80.76
76331;BME280;65148;51.912;15.570;2023-01-28T18:03:35;102679.37;;;0.65;81.77
76331;BME280;65148;51.912;15.570;2023-01-28T18:19:01;102706.55;;;0.54;82.03
76331;BME280;65148;51.912;15.570;2023-01-28T18:34:03;102726.41;;;0.67;81.96
76331;BME280;65148;51.912;15.570;2023-01-28T18:49:04;102747.24;;;0.49;82.88
76331;BME280;65148;51.912;15.570;2023-01-28T19:04:05;102744.73;;;0.48;83.16
76331;BME280;65148;51.912;15.570;2023-01-28T19:19:29;102744.23;;;0.36;83.20
76331;BME280;65148;51.912;15.570;2023-01-28T19:34:30;102726.78;;;0.64;81.40
76331;BME280;65148;51.912;15.570;2023-01-28T19:49:31;102730.52;;;0.39;82.42
76331;BME280;65148;51.912;15.570;2023-01-28T20:04:32;102711.33;;;0.66;82.54
76331;BME280;65148;51.912;15.570;2023-01-28T20:19:57;102719.27;;;0.44;83.00
76331;BME280;65148;51.912;15.570;2023-01-28T20:34:58;102716.39;;;0.61;82.82
76331;BME280;65148;51.912;15.570;2023-01-28T20:49:58;102709.89;;;0.48;83.61
76331;BME280;65148;51.912;15.570;2023-01-28T21:05:00;102728.25;;;0.67;83.10
76331;BME280;65148;51.912;15.570;2023-01-28T21:20:25;102733.68;;;0.51;82.67
76331;BME280;65148;51.912;15.570;2023-01-28T21:35:25;102738.70;;;0.54;82.90
76331;BME280;65148;51.912;15.570;2023-01-28T21:50:26;102710.42;;;0.43;82.53
76331;BME280;65148;51.912;15.570;2023-01-28T22:05:27;102711.94;;;0.38;82.83
76331;BME280;65148;51.912;15.570;2023-01-28T22:20:58;102716.77;;;0.34;83.18
76331;BME280;65148;51.912;15.570;2023-01-28T22:36:00;102709.39;;;0.44;81.78
76331;BME280;65148;51.912;15.570;2023-01-28T22:51:05;102719.99;;;0.29;81.59
76331;BME280;65148;51.912;15.570;2023-01-28T23:06:34;102693.03;;;0.23;81.12
76331;BME280;65148;51.912;15.570;2023-01-28T23:21:37;102708.12;;;0.16;80.80
76331;BME280;65148;51.912;15.570;2023-01-28T23:36:50;102693.75;;;0.09;81.52
76331;BME280;65148;51.912;15.570;2023-01-28T23:52:16;102679.69;;;0.07;80.97
